Weather observations for the past three days for
Brookneal/Campbell County Airport
Imperial (Metric)
Date Time (edt) Wind (mph) Vis. (mi.) Weather Sky Cond. Temperature (ºF) Relative Humidity Wind Chill (°F) Heat Index (°F) Pressure Precipitation (in)
Air Dwpt 6 hour altimeter (in) sea level (mb) 1 hr 3 hr 6 hr
Max. Min.
02 12:35 W 6 10.00 Fair CLR 96.8 66.2 37% 100 30.08 0.0
02 12:15 S 6 10.00 Partly Cloudy SCT060 96.8 68 39% 102 30.09 0.0
02 11:55 E 8 10.00 Partly Cloudy SCT060 95 68 41% 100 30.1 0.0
02 11:35 S 7 10.00 Partly Cloudy SCT060 95 68 41% 100 30.1 0.0
02 11:15 S 12 10.00 Fair CLR 95 68 41% 100 30.1 0.0
02 10:55 SE 6 10.00 Fair CLR 93.2 68 44% 98 30.1 0.0
02 10:35 S 3 10.00 Fair CLR 91.4 69.8 49% 97 30.1 0.0
02 10:15 E 5 10.00 Fair CLR 91.4 69.8 49% 97 30.1 0.0
02 09:55 E 5 10.00 Fair CLR 89.6 69.8 52% 95 30.09 0.0
02 09:35 NE 6 10.00 Fair CLR 87.8 69.8 55% 93 30.09 0.0
02 09:15 E 7 10.00 Fair CLR 86 71.6 62% 92 30.09 0.0
02 08:55 Calm 10.00 Fair CLR 82.4 71.6 70% 87 30.09 0.0
02 08:35 S 5 10.00 Fair CLR 78.8 69.8 74% 81 30.09 0.0
02 08:15 SE 7 10.00 Fair CLR 77 69.8 79% 79 30.09 0.0
02 07:35 S 6 10.00 Fair CLR 69.8 68 94% 30.09 0.0
02 07:15 S 8 10.00 Fair CLR 69.8 68 94% 30.09 0.0
02 06:55 S 7 10.00 Fair CLR 69.8 68 94% 30.09 0.0
02 06:35 S 8 10.00 Fair CLR 69.8 68 94% 30.08 0.0
02 06:15 SE 9 10.00 Fair CLR 69.8 68 94% 30.08 0.0
02 05:55 S 7 10.00 Fair CLR 69.8 68 94% 30.07 0.0
02 05:35 S 6 10.00 Fair CLR 69.8 68 94% 30.07 0.0
02 05:15 S 7 10.00 Fair CLR 71.6 68 88% 30.07 0.0
02 04:55 S 7 10.00 Fair CLR 71.6 68 88% 30.07 0.0
02 04:35 S 7 10.00 Fair CLR 71.6 68 88% 30.06 0.0
02 04:15 S 7 10.00 Fair CLR 71.6 68 88% 30.06 0.0
02 03:55 S 7 10.00 Fair CLR 71.6 68 88% 30.07 0.0
02 03:35 S 5 10.00 Fair CLR 71.6 68 88% 30.06 0.0
02 03:15 S 8 10.00 Fair CLR 71.6 68 88% 30.06 0.0
02 02:55 S 7 10.00 Fair CLR 71.6 68 88% 30.07 0.0
02 02:35 SE 8 10.00 Fair CLR 71.6 69.8 94% 30.07 0.0
02 02:15 S 6 10.00 Fair CLR 71.6 69.8 94% 30.07 0.0
02 01:55 S 7 10.00 Fair CLR 73.4 69.8 89% 30.07 0.0
02 01:35 S 7 10.00 Fair CLR 71.6 68 88% 30.07 0.0
02 01:15 SE 7 10.00 Fair CLR 73.4 69.8 89% 30.06 0.0
02 00:55 S 7 10.00 Fair CLR 73.4 69.8 89% 30.06 0.0
02 00:35 SE 7 10.00 Fair CLR 75.2 69.8 83% 75 30.05 0.0
02 00:15 S 6 10.00 Fair CLR 77 69.8 79% 79 30.05 0.0
01 23:35 SE 3 10.00 Fair CLR 78.8 69.8 74% 81 30.04 0.0
01 23:15 S 6 10.00 Fair CLR 78.8 69.8 74% 81 30.04 0.0
01 22:55 S 6 10.00 Fair CLR 78.8 69.8 74% 81 30.05 0.0
01 22:35 S 6 10.00 Fair CLR 77 69.8 79% 79 30.05 0.0
01 22:15 S 6 10.00 Fair CLR 78.8 69.8 74% 81 30.04 0.0
01 21:55 S 7 10.00 Fair CLR 78.8 69.8 74% 81 30.03 0.0
01 21:35 S 6 10.00 Fair CLR 78.8 69.8 74% 81 30.03 0.0
01 21:15 S 6 10.00 Fair CLR 80.6 69.8 70% 84 30.02 0.0
01 20:55 S 7 10.00 Fair CLR 82.4 69.8 66% 86 30.01 0.0
01 20:35 S 7 10.00 Fair CLR 82.4 69.8 66% 86 30.01 0.0
01 20:15 S 7 10.00 Fair CLR 86 69.8 59% 91 30 0.0
01 19:55 S 7 10.00 Fair CLR 87.8 69.8 55% 93 30.01 0.0
01 19:35 S 7 10.00 Fair CLR 89.6 69.8 52% 95 30.01 0.0
01 19:15 S 5 10.00 Fair CLR 91.4 68 46% 96 30.01 0.0
01 18:55 S 6 10.00 Fair CLR 93.2 68 44% 98 30.01 0.0
01 18:35 S 3 10.00 Fair CLR 95 66.2 39% 98 30.01 0.0
01 18:15 S 5 10.00 Fair CLR 95 64.4 36% 97 30.01 0.0
01 17:55 N 5 10.00 Fair CLR 96.8 64.4 34% 99 30.02 0.0
01 17:35 W 6 10.00 Fair CLR 96.8 64.4 34% 99 30.02 0.0
01 17:15 NW 6 10.00 Fair CLR 96.8 64.4 34% 99 30.02 0.0
01 16:55 SE 5 10.00 Partly Cloudy SCT070 98.6 64.4 33% 101 30.02 0.0
01 16:35 S 6 10.00 Fair CLR 96.8 64.4 34% 99 30.03 0.0
01 16:15 W 5 10.00 Partly Cloudy SCT070 96.8 64.4 34% 99 30.03 0.0
01 15:55 NE 8 10.00 Partly Cloudy SCT070 98.6 64.4 33% 101 30.03 0.0
01 15:35 S 6 10.00 Partly Cloudy SCT070 98.6 64.4 33% 101 30.04 0.0
01 15:15 NW 6 10.00 Partly Cloudy SCT070 96.8 64.4 34% 99 30.04 0.0
01 14:55 S 7 10.00 Partly Cloudy SCT070 95 64.4 36% 97 30.05 0.0
01 14:35 W 5 10.00 Partly Cloudy SCT070 98.6 64.4 33% 101 30.05 0.0
01 14:15 NW 5 10.00 Partly Cloudy SCT070 96.8 64.4 34% 99 30.05 0.0
01 13:55 W 5 10.00 Fair CLR 96.8 64.4 34% 99 30.05 0.0
01 13:35 S 7 10.00 Fair CLR 95 68 41% 100 30.05 0.0
01 13:15 SW 5 10.00 Partly Cloudy SCT060 SCT080 91.4 68 46% 96 30.06 0.0
01 12:55 N 6 10.00 Partly Cloudy SCT060 95 68 41% 100 30.06 0.0
01 12:35 N 5 10.00 Mostly Cloudy SCT060 BKN075 95 68 41% 100 30.07 0.0
01 12:15 SW 5 10.00 Fair CLR 95 68 41% 100 30.08 0.0
01 11:55 W 3 10.00 Fair CLR 93.2 68 44% 98 30.08 0.0
01 11:35 S 8 10.00 Fair CLR 91.4 69.8 49% 97 30.09 0.0
01 11:15 W 6 10.00 Fair CLR 91.4 69.8 49% 97 30.1 0.0
01 10:55 W 5 10.00 Fair CLR 89.6 69.8 52% 95 30.1 0.0
01 10:35 W 7 10.00 Fair CLR 89.6 69.8 52% 95 30.11 0.0
01 10:15 W 5 10.00 Fair CLR 87.8 71.6 59% 94 30.11 0.0
01 09:55 NE 5 10.00 Fair CLR 86 71.6 62% 92 30.11 0.0
01 09:35 W 5 10.00 Fair CLR 82.4 71.6 70% 87 30.11 0.0
01 09:15 S 3 10.00 Fair CLR 80.6 71.6 74% 85 30.11 0.0
01 08:55 S 6 10.00 Fair CLR 78.8 71.6 79% 82 30.11 0.0
01 08:35 S 6 10.00 Fair CLR 77 69.8 79% 79 30.11 0.0
01 08:15 S 7 10.00 Fair CLR 73.4 69.8 89% 30.11 0.0
01 07:55 E 3 10.00 Fair CLR 71.6 69.8 94% 30.11 0.0
01 07:35 SE 5 7.00 Fair CLR 68 68 100% 30.1 0.0
01 07:15 S 6 7.00 Fair CLR 68 68 100% 30.09 0.0
01 06:55 S 6 4.00 Fair CLR 68 66.2 94% 30.09 0.0
01 06:35 SE 7 1.25 Sky Obscured VV007 68 68 100% 30.08 0.0
01 06:15 S 6 7.00 Fair CLR 68 68 100% 30.08 0.0
01 05:55 SE 7 10.00 Fair CLR 66.2 66.2 100% 30.08 0.0
01 05:35 SE 7 7.00 Fair CLR 68 68 100% 30.08 0.0
01 05:15 E 3 5.00 Fair CLR 68 68 100% 30.08 0.0
01 04:55 S 6 5.00 Fair CLR 68 68 100% 30.08 0.0
01 04:35 SE 8 10.00 Fair CLR 68 68 100% 30.08 0.0
01 04:15 SE 8 7.00 Fair CLR 68 68 100% 30.08 0.0
01 03:55 S 6 7.00 Fair CLR 68 68 100% 30.09 0.0
01 03:35 SE 6 7.00 Fair CLR 69.8 69.8 100% 30.08 0.0
01 03:15 SE 7 7.00 Fair CLR 69.8 69.8 100% 30.08 0.0
01 02:55 S 7 10.00 Fair CLR 69.8 69.8 100% 30.09 0.0
01 02:35 S 5 10.00 Fair CLR 69.8 69.8 100% 30.09 0.0
01 02:15 SE 6 10.00 Fair CLR 71.6 69.8 94% 30.1 0.0
01 01:55 SE 5 10.00 Fair CLR 71.6 69.8 94% 30.1 0.0
01 01:35 S 6 10.00 Fair CLR 71.6 69.8 94% 30.11 0.0
01 01:15 S 6 10.00 Fair CLR 71.6 69.8 94% 30.11 0.0
01 00:55 E 6 10.00 Fair CLR 71.6 69.8 94% 30.1 0.0
01 00:35 Calm 10.00 Fair CLR 71.6 69.8 94% 30.11 0.0
01 00:15 E 5 10.00 Fair CLR 71.6 69.8 94% 30.11 0.0
31 23:55 E 6 10.00 Fair CLR 71.6 69.8 94% 30.11 0.0
31 23:35 E 8 10.00 Fair CLR 73.4 69.8 89% 30.11 0.0
31 23:15 SE 6 10.00 Fair CLR 73.4 69.8 89% 30.11 0.0
31 22:55 E 7 10.00 Fair CLR 73.4 69.8 89% 30.11 0.0
31 22:35 E 3 10.00 Fair CLR 77 69.8 79% 79 30.11 0.0
31 22:15 E 8 10.00 Fair CLR 77 69.8 79% 79 30.11 0.0
31 21:55 E 9 10.00 Fair CLR 77 69.8 79% 79 30.1 0.0
31 21:35 E 9 10.00 Fair CLR 77 69.8 79% 79 30.1 0.0
31 21:15 E 8 10.00 Fair CLR 77 69.8 79% 79 30.09 0.0
31 20:55 E 8 10.00 Fair CLR 78.8 69.8 74% 81 30.09 0.0
31 20:35 E 7 10.00 Partly Cloudy SCT090 78.8 69.8 74% 81 30.08 0.0
31 20:15 S 7 10.00 Partly Cloudy SCT090 80.6 69.8 70% 84 30.08 0.0
31 19:55 S 7 10.00 Mostly Cloudy SCT080 BKN090 80.6 69.8 70% 84 30.07 0.0
31 19:35 S 12 10.00 Overcast SCT055 OVC080 82.4 69.8 66% 86 30.07 0.0
31 19:15 S 12 10.00 Overcast SCT050 SCT065 OVC080 82.4 69.8 66% 86 30.07 0.0
31 18:55 S 5 10.00 Overcast BKN065 OVC095 84.2 69.8 62% 88 30.08 0.0
31 18:35 S 6 10.00 Partly Cloudy SCT075 SCT085 86 69.8 59% 91 30.07 0.0
31 18:15 S 8 10.00 Fair CLR 87.8 69.8 55% 93 30.06 0.0
31 17:55 S 10 10.00 Partly Cloudy SCT085 89.6 69.8 52% 95 30.06 0.0
31 17:35 SE 7 10.00 Overcast BKN070 OVC085 91.4 68 46% 96 30.06 0.0
31 17:15 S 12 G 18 10.00 Mostly Cloudy BKN070 BKN110 89.6 68 49% 93 30.06 0.0
31 16:55 SE 10 G 18 10.00 Partly Cloudy SCT070 SCT110 91.4 68 46% 96 30.06 0.0
31 16:35 E 7 10.00 Partly Cloudy SCT090 SCT120 93.2 64.4 39% 95 30.06 0.0
31 16:15 NE 6 10.00 Mostly Cloudy SCT100 BKN120 93.2 64.4 39% 95 30.06 0.0
31 15:55 W 3 10.00 Partly Cloudy SCT070 SCT100 SCT120 95 64.4 36% 97 30.07 0.0
31 15:35 NE 7 10.00 Partly Cloudy SCT070 95 64.4 36% 97 30.07 0.0
31 15:15 S 6 10.00 Fair CLR 95 64.4 36% 97 30.07 0.0
31 14:55 SW 7 10.00 Partly Cloudy SCT075 SCT085 SCT120 96.8 64.4 34% 99 30.08 0.0
31 14:35 W 5 10.00 Partly Cloudy SCT060 96.8 64.4 34% 99 30.08 0.0
31 14:15 S 6 10.00 Partly Cloudy SCT060 SCT085 SCT110 95 66.2 39% 98 30.09 0.0
31 13:55 NW 6 10.00 Mostly Cloudy SCT060 SCT085 BKN110 95 66.2 39% 98 30.1 0.0
31 13:35 NE 7 10.00 Mostly Cloudy SCT060 SCT075 BKN110 95 68 41% 100 30.1 0.0
31 13:15 NE 6 10.00 Mostly Cloudy BKN050 BKN075 BKN110 91.4 66.2 44% 94 30.11 0.0
31 12:55 NE 10 10.00 Mostly Cloudy SCT050 BKN110 93.2 68 44% 98 30.11 0.0
31 12:35 E 5 G 18 10.00 Partly Cloudy SCT050 SCT110 91.4 66.2 44% 94 30.12 0.0
31 12:15 S 7 10.00 Partly Cloudy SCT045 91.4 68 46% 96 30.12 0.0
31 11:55 N 6 10.00 Partly Cloudy SCT045 91.4 69.8 49% 97 30.12 0.0
31 11:35 E 7 10.00 Fair CLR 89.6 68 49% 93 30.13 0.0
31 11:15 S 6 10.00 Fair CLR 89.6 69.8 52% 95 30.13 0.0
31 10:55 S 6 10.00 Fair CLR 87.8 69.8 55% 93 30.13 0.0
31 10:35 SE 5 10.00 Fair CLR 86 69.8 59% 91 30.13 0.0
31 10:15 NW 5 10.00 Fair CLR 84.2 69.8 62% 88 30.13 0.0
31 09:55 SE 5 10.00 Fair CLR 82.4 69.8 66% 86 30.13 0.0
31 09:35 S 7 10.00 Fair CLR 80.6 69.8 70% 84 30.14 0.0
31 09:15 S 6 10.00 Fair CLR 78.8 69.8 74% 81 30.14 0.0
31 08:55 S 7 10.00 Fair CLR 77 69.8 79% 79 30.14 0.0
31 08:35 S 8 10.00 Fair CLR 73.4 69.8 89% 30.14 0.0
31 08:15 S 7 10.00 Fair CLR 71.6 69.8 94% 30.14 0.0
31 07:55 S 3 10.00 Fair CLR 69.8 69.8 100% 30.13 0.0
31 07:35 S 6 10.00 Fair CLR 69.8 68 94% 30.13 0.0
31 07:15 S 7 10.00 Fair CLR 68 68 100% 30.13 0.0
31 06:55 S 8 7.00 Partly Cloudy SCT075 66.2 66.2 100% 30.12 0.0
31 06:35 S 6 7.00 Partly Cloudy SCT075 66.2 66.2 100% 30.12 0.0
31 06:15 SE 9 7.00 Partly Cloudy SCT080 68 68 100% 30.11 0.0
31 05:55 S 8 10.00 Partly Cloudy SCT080 68 66.2 94% 30.11 0.0
31 05:35 SE 7 10.00 Fair CLR 68 68 100% 30.11 0.0
31 05:15 SE 9 10.00 Fair CLR 69.8 68 94% 30.11 0.0
31 04:55 S 7 10.00 Fair CLR 69.8 68 94% 30.11 0.0
31 04:35 S 6 10.00 Fair CLR 68 68 100% 30.11 0.0
31 04:15 S 6 10.00 Fair CLR 68 68 100% 30.11 0.0
31 03:55 S 6 10.00 Fair CLR 68 66.2 94% 30.11 0.0
31 03:35 S 6 10.00 Fair CLR 68 68 100% 30.11 0.0
31 03:15 S 6 10.00 Fair CLR 68 66.2 94% 30.11 0.0
31 02:55 S 7 10.00 Fair CLR 69.8 68 94% 30.11 0.0
31 02:35 S 6 10.00 Fair CLR 68 66.2 94% 30.12 0.0
31 02:15 S 6 10.00 Fair CLR 68 66.2 94% 30.12 0.0
31 01:55 S 6 10.00 Fair CLR 68 66.2 94% 30.12 0.0
31 01:35 S 9 10.00 Fair CLR 69.8 68 94% 30.12 0.0
31 01:15 S 9 10.00 Fair CLR 69.8 68 94% 30.13 0.0
31 00:55 S 8 10.00 Fair CLR 71.6 68 88% 30.13 0.0
31 00:35 S 8 10.00 Fair CLR 71.6 68 88% 30.13 0.0
31 00:15 S 8 10.00 Fair CLR 71.6 68 88% 30.13 0.0
30 23:55 S 8 10.00 Fair CLR 73.4 68 83% 30.13 0.0
30 23:35 S 8 10.00 Fair CLR 71.6 68 88% 30.13 0.0
30 23:15 S 10 10.00 Fair CLR 75.2 69.8 83% 75 30.13 0.0
30 22:55 S 10 10.00 Fair CLR 77 69.8 79% 79 30.14 0.0
30 22:35 S 9 10.00 Fair CLR 77 68 74% 79 30.14 0.0
30 22:15 S 9 10.00 Fair CLR 77 68 74% 79 30.14 0.0
30 21:55 S 12 10.00 Fair CLR 78.8 68 70% 81 30.13 0.0
30 21:35 S 12 10.00 Fair CLR 78.8 68 70% 81 30.13 0.0
30 21:15 S 12 10.00 Fair CLR 78.8 68 70% 81 30.13 0.0
30 20:55 S 9 10.00 Fair CLR 78.8 64.4 61% 81 30.12 0.0
30 20:35 S 10 10.00 Fair CLR 80.6 64.4 58% 82 30.11 0.0
30 20:15 S 12 10.00 Fair CLR 78.8 64.4 61% 81 30.1 0.0
30 19:55 S 10 10.00 Fair CLR 82.4 64.4 55% 84 30.1 0.0
30 19:35 S 10 10.00 Fair CLR 84.2 64.4 51% 86 30.1 0.0
30 19:15 S 10 10.00 Fair CLR 86 64.4 49% 87 30.1 0.0
30 18:55 S 10 10.00 Fair CLR 87.8 64.4 46% 89 30.1 0.0
30 18:35 SE 9 10.00 Fair CLR 89.6 64.4 43% 91 30.11 0.0
30 18:15 S 12 10.00 Fair CLR 87.8 64.4 46% 89 30.1 0.0
30 17:55 S 12 10.00 Partly Cloudy SCT065 SCT075 SCT085 89.6 64.4 43% 91 30.1 0.0
30 17:35 S 12 10.00 Partly Cloudy SCT075 SCT080 91.4 64.4 41% 93 30.1 0.0
30 17:15 S 10 10.00 Fair CLR 89.6 64.4 43% 91 30.1 0.0
30 16:55 S 14 10.00 Fair CLR 89.6 64.4 43% 91 30.1 0.0
30 16:35 S 13 10.00 Fair CLR 91.4 64.4 41% 93 30.1 0.0
30 16:15 SE 6 10.00 Fair CLR 91.4 64.4 41% 93 30.11 0.0
30 15:55 SE 9 10.00 Fair CLR 91.4 64.4 41% 93 30.12 0.0
30 15:35 E 5 10.00 Fair CLR 89.6 64.4 43% 91 30.12 0.0
30 15:15 S 13 G 17 10.00 Fair CLR 89.6 66.2 46% 92 30.13 0.0
30 14:55 SW 5 10.00 Partly Cloudy SCT045 89.6 66.2 46% 92 30.15 0.0
30 14:35 SE 3 10.00 Partly Cloudy SCT043 89.6 68 49% 93 30.16 0.0
30 14:15 S 12 G 16 10.00 Partly Cloudy SCT042 87.8 68 52% 91 30.17 0.0
30 13:55 S 15 G 20 10.00 Partly Cloudy SCT038 87.8 68 52% 91 30.18 0.0
30 13:35 S 9 10.00 Partly Cloudy SCT038 86 68 55% 89 30.19 0.0
30 13:15 S 7 10.00 Fair CLR 86 68 55% 89 30.2 0.0
30 12:55 SW 3 10.00 Partly Cloudy SCT026 86 68 55% 89 30.21 0.0
Date Time (edt) Wind (mph) Vis. (mi.) Weather Sky Cond. Air Dwpt Max. Min. Relative Humidity Wind Chill (°F) Heat Index (°F) altimeter (in) sea level (mb) 1 hr 3 hr 6 hr
6 hour
Temperature (ºF) Pressure Precipitation (in)